Time;durP1;ratioP1;P1;durP2;ratioP2;P2;SDS_P1;SDS_P2;PMS_P1;PMS_P2;Temp;Humidity;BMP_temperature;BMP_pressure;BME280_temperature;BME280_humidity;BME280_pressure;Samples;Min_cycle;Max_cycle;Signal;HPM_P1;HPM_P2
2021/03/20 00:00:26;;;;;;;15.27;13.60;;;11.90;65.70;;;;;;5009270;28;20026;-83
2021/03/20 00:02:52;;;;;;;14.38;12.85;;;11.90;66.40;;;;;;5008781;28;20065;-84
2021/03/20 00:05:19;;;;;;;16.25;14.55;;;11.90;65.80;;;;;;5008791;28;20026;-80
2021/03/20 00:07:46;;;;;;;16.25;14.45;;;11.90;65.80;;;;;;5008849;28;20452;-84
2021/03/20 00:10:14;;;;;;;15.95;14.15;;;11.90;66.40;;;;;;5008398;28;20487;-86
2021/03/20 00:12:43;;;;;;;17.40;15.18;;;11.80;65.70;;;;;;5010040;28;20140;-83
2021/03/20 00:15:12;;;;;;;16.17;14.48;;;11.80;65.80;;;;;;5027585;28;20033;-82
2021/03/20 00:17:38;;;;;;;16.02;14.10;;;11.80;65.80;;;;;;5027529;28;20490;-81
2021/03/20 00:20:06;;;;;;;15.15;13.60;;;11.80;65.80;;;;;;5028406;28;20438;-83
2021/03/20 00:22:31;;;;;;;16.23;14.10;;;11.80;65.80;;;;;;5027077;28;20033;-84
2021/03/20 00:24:57;;;;;;;15.43;13.82;;;11.80;65.90;;;;;;5028355;28;20435;-82
2021/03/20 00:27:24;;;;;;;16.33;14.63;;;11.80;65.90;;;;;;5010694;28;20033;-86
2021/03/20 00:29:50;;;;;;;16.58;14.90;;;11.80;65.90;;;;;;5027171;28;20034;-82
2021/03/20 00:32:16;;;;;;;17.60;15.70;;;11.80;66.00;;;;;;5027022;28;20068;-82
2021/03/20 00:34:42;;;;;;;17.00;15.15;;;11.70;65.80;;;;;;5027769;28;20068;-80
2021/03/20 00:37:08;;;;;;;16.42;14.73;;;11.80;66.00;;;;;;5026974;28;20520;-82
2021/03/20 00:39:34;;;;;;;17.65;14.93;;;11.70;65.80;;;;;;5012970;28;20088;-81
2021/03/20 00:42:00;;;;;;;18.33;15.60;;;11.70;65.80;;;;;;5008267;28;20066;-81
2021/03/20 00:44:26;;;;;;;16.45;14.63;;;11.70;65.90;;;;;;5006717;28;20042;-82
2021/03/20 00:46:52;;;;;;;17.58;15.77;;;11.70;65.90;;;;;;5006910;28;20030;-81
2021/03/20 00:49:18;;;;;;;18.00;15.73;;;11.70;65.90;;;;;;5006395;28;20456;-81
2021/03/20 00:51:44;;;;;;;16.25;14.55;;;11.70;65.90;;;;;;5007031;28;20034;-82
2021/03/20 00:54:10;;;;;;;17.70;15.55;;;11.60;65.80;;;;;;5008071;28;20377;-82
2021/03/20 00:56:36;;;;;;;17.27;15.43;;;11.70;66.00;;;;;;5008281;28;20034;-82
2021/03/20 00:59:02;;;;;;;18.70;15.75;;;11.60;65.80;;;;;;5015384;28;20032;-82
2021/03/20 01:01:28;;;;;;;17.73;15.98;;;11.60;65.80;;;;;;5027854;28;20063;-82
2021/03/20 01:03:54;;;;;;;17.08;15.27;;;11.60;65.90;;;;;;5025999;28;20048;-83
2021/03/20 01:06:26;;;;;;;19.15;16.63;;;11.60;65.90;;;;;;5027000;28;20034;-81
2021/03/20 01:08:54;;;;;;;17.52;15.70;;;11.50;65.80;;;;;;5030238;28;20033;-81
2021/03/20 01:11:22;;;;;;;17.38;15.43;;;11.50;65.80;;;;;;5032106;28;20069;-80
2021/03/20 01:13:48;;;;;;;16.23;14.52;;;11.60;66.00;;;;;;5013419;28;20033;-80
2021/03/20 01:16:14;;;;;;;18.20;15.65;;;11.50;65.80;;;;;;5022848;28;20040;-80
2021/03/20 01:18:40;;;;;;;20.40;16.13;;;11.50;65.90;;;;;;5025886;28;20037;-80
2021/03/20 01:21:07;;;;;;;21.17;15.95;;;11.50;65.90;;;;;;5025715;28;20076;-81
2021/03/20 01:23:34;;;;;;;19.10;15.70;;;11.50;65.90;;;;;;5025626;28;20057;-81
2021/03/20 01:26:00;;;;;;;18.40;15.98;;;11.50;65.90;;;;;;5026308;28;20481;-79
2021/03/20 01:28:29;;;;;;;18.00;16.10;;;11.50;66.00;;;;;;5009159;28;20030;-78
2021/03/20 01:30:56;;;;;;;18.60;16.50;;;11.40;66.30;;;;;;5026615;28;20036;-80
2021/03/20 01:33:22;;;;;;;18.65;16.52;;;11.40;65.80;;;;;;5025522;28;20033;-79
2021/03/20 01:35:48;;;;;;;18.42;16.52;;;11.40;65.80;;;;;;5027018;28;20040;-78
2021/03/20 01:38:14;;;;;;;18.05;15.02;;;11.40;65.90;;;;;;5025243;28;20088;-80
2021/03/20 01:40:46;;;;;;;16.50;14.82;;;11.40;65.90;;;;;;5025742;28;20033;-78
2021/03/20 01:43:15;;;;;;;16.98;15.18;;;11.40;65.90;;;;;;5026694;28;20038;-84
2021/03/20 01:45:41;;;;;;;18.38;16.40;;;11.30;65.70;;;;;;5026629;28;20120;-80
2021/03/20 01:48:21;;;;;;;18.65;16.23;;;11.30;65.80;;;;;;5027071;28;20025;-79
2021/03/20 01:50:50;;;;;;;16.70;15.00;;;11.40;66.00;;;;;;5025542;28;20057;-79
2021/03/20 01:53:36;;;;;;;18.63;16.67;;;11.30;65.80;;;;;;5026560;28;20048;-82
2021/03/20 01:56:05;;;;;;;16.60;14.98;;;11.30;65.80;;;;;;5025223;28;20192;-80
2021/03/20 01:58:32;;;;;;;18.27;15.60;;;11.30;65.90;;;;;;5026697;28;20044;-80
2021/03/20 02:01:22;;;;;;;17.15;14.48;;;11.30;65.90;;;;;;5025214;28;20109;-81
2021/03/20 02:03:49;;;;;;;19.42;16.08;;;11.30;66.00;;;;;;5008862;28;20041;-80
2021/03/20 02:06:16;;;;;;;17.73;16.02;;;11.30;65.90;;;;;;5026775;28;20033;-84
2021/03/20 02:08:44;;;;;;;18.30;15.82;;;11.30;65.90;;;;;;5026140;28;20033;-82
2021/03/20 02:11:29;;;;;;;18.83;16.77;;;11.20;65.80;;;;;;5026045;28;20102;-80
2021/03/20 02:14:07;;;;;;;16.48;14.75;;;11.30;66.00;;;;;;5026980;28;20033;-80
2021/03/20 02:16:49;;;;;;;18.15;16.25;;;11.20;65.80;;;;;;5008710;28;20098;-80
2021/03/20 02:20:05;;;;;;;19.83;16.23;;;11.20;65.80;;;;;;5025093;28;20057;-79
2021/03/20 02:22:59;;;;;;;18.13;16.17;;;11.20;65.80;;;;;;5014758;28;20037;-77
2021/03/20 02:25:57;;;;;;;18.38;16.25;;;11.20;65.80;;;;;;5008613;28;20480;-78
2021/03/20 02:28:32;;;;;;;18.67;16.20;;;11.20;65.80;;;;;;5025191;28;20049;-79
2021/03/20 02:31:17;;;;;;;17.02;15.32;;;11.20;65.80;;;;;;5026358;28;20026;-79
2021/03/20 02:33:58;;;;;;;17.50;15.60;;;11.10;65.60;;;;;;5009826;28;20040;-79
2021/03/20 02:36:36;;;;;;;18.48;16.50;;;11.10;65.70;;;;;;5027401;28;20064;-78
2021/03/20 02:39:11;;;;;;;18.75;15.77;;;11.10;65.70;;;;;;5027064;28;20461;-78
2021/03/20 02:41:50;;;;;;;18.42;16.17;;;11.10;65.70;;;;;;5026342;28;20037;-81
2021/03/20 02:44:24;;;;;;;19.75;16.50;;;11.10;65.80;;;;;;5009758;28;20492;-79
2021/03/20 02:47:01;;;;;;;18.98;16.92;;;11.10;65.80;;;;;;5028556;28;20080;-78
2021/03/20 02:49:41;;;;;;;17.92;15.93;;;11.10;65.80;;;;;;5043122;28;20041;-78
2021/03/20 02:52:21;;;;;;;19.88;16.90;;;11.10;65.90;;;;;;5034431;28;20029;-84
2021/03/20 02:54:56;;;;;;;18.15;16.20;;;11.10;65.90;;;;;;5033308;28;20248;-84
2021/03/20 02:57:29;;;;;;;18.20;16.25;;;11.00;65.70;;;;;;5034346;28;20492;-82
2021/03/20 02:59:59;;;;;;;20.80;16.45;;;11.10;65.90;;;;;;5033300;28;20500;-85
2021/03/20 03:02:29;;;;;;;18.25;16.33;;;11.10;65.90;;;;;;5034854;28;20083;-83
2021/03/20 03:04:58;;;;;;;20.15;17.08;;;11.00;66.30;;;;;;5033198;28;20408;-85
2021/03/20 03:07:33;;;;;;;21.75;16.90;;;11.00;65.70;;;;;;5033213;28;20037;-82
2021/03/20 03:10:10;;;;;;;18.77;16.77;;;11.00;65.80;;;;;;5033992;28;20025;-83
2021/03/20 03:12:46;;;;;;;19.50;17.58;;;11.00;65.80;;;;;;5032932;28;20079;-80
2021/03/20 03:15:20;;;;;;;17.35;15.68;;;11.00;65.80;;;;;;5033203;28;20473;-83
2021/03/20 03:17:51;;;;;;;19.05;17.02;;;11.00;65.80;;;;;;5034018;28;20063;-83
2021/03/20 03:20:27;;;;;;;18.73;15.63;;;11.00;65.80;;;;;;5033688;28;20030;-82
2021/03/20 03:23:02;;;;;;;20.52;17.70;;;11.00;65.90;;;;;;5033884;28;20469;-84
2021/03/20 03:25:30;;;;;;;20.90;17.00;;;11.00;65.90;;;;;;5033795;28;20389;-83
2021/03/20 03:28:01;;;;;;;17.92;15.93;;;11.00;65.90;;;;;;5032731;28;20460;-83
2021/03/20 03:30:29;;;;;;;18.92;16.98;;;10.90;65.70;;;;;;5033845;28;20500;-84
2021/03/20 03:33:05;;;;;;;21.67;18.02;;;10.90;65.70;;;;;;5016358;28;20135;-81
2021/03/20 03:35:38;;;;;;;20.30;18.15;;;10.90;65.80;;;;;;5032723;28;20075;-83
2021/03/20 03:38:18;;;;;;;22.13;17.35;;;11.00;66.00;;;;;;5032515;28;20026;-82
2021/03/20 03:41:11;;;;;;;20.88;18.05;;;10.90;65.80;;;;;;5032616;28;20450;-81
2021/03/20 03:43:37;;;;;;;22.00;18.33;;;10.90;65.80;;;;;;5033494;28;20515;-80
2021/03/20 03:46:04;;;;;;;19.85;17.73;;;10.90;65.80;;;;;;5032473;28;20088;-79
2021/03/20 03:48:31;;;;;;;20.98;17.52;;;10.90;65.80;;;;;;5033353;28;20044;-79
2021/03/20 03:51:15;;;;;;;20.88;18.67;;;10.90;65.90;;;;;;5032045;28;20026;-85
2021/03/20 03:53:41;;;;;;;19.50;16.80;;;10.90;66.00;;;;;;5032392;28;20037;-84
2021/03/20 03:56:20;;;;;;;19.92;17.83;;;10.90;65.90;;;;;;5032085;28;20512;-84
2021/03/20 03:59:05;;;;;;;17.63;15.82;;;10.90;65.90;;;;;;5032763;28;20040;-84
2021/03/20 04:01:54;;;;;;;19.63;17.63;;;10.80;65.80;;;;;;5033255;28;20033;-84
2021/03/20 04:04:44;;;;;;;18.65;16.65;;;10.80;65.80;;;;;;5031913;28;20071;-84
2021/03/20 04:07:35;;;;;;;19.92;17.80;;;10.80;65.80;;;;;;5032007;28;20123;-83
2021/03/20 04:10:19;;;;;;;21.83;18.60;;;10.80;65.80;;;;;;5031959;28;20139;-84
2021/03/20 04:13:07;;;;;;;18.35;16.45;;;10.80;65.80;;;;;;5031697;28;20064;-85
2021/03/20 04:15:48;;;;;;;20.23;17.95;;;10.80;65.80;;;;;;5031669;28;20032;-84
2021/03/20 04:18:22;;;;;;;21.20;18.05;;;10.80;65.80;;;;;;5031739;28;20041;-82
2021/03/20 04:20:58;;;;;;;21.35;19.05;;;10.80;65.80;;;;;;5032949;28;20519;-83
2021/03/20 04:23:50;;;;;;;20.98;18.77;;;10.80;65.90;;;;;;5031490;28;20045;-84
2021/03/20 04:26:45;;;;;;;21.30;19.05;;;10.70;65.70;;;;;;5019781;28;20112;-84
2021/03/20 04:29:24;;;;;;;20.50;17.23;;;10.70;65.70;;;;;;5009500;28;20065;-83
2021/03/20 04:32:09;;;;;;;18.42;16.52;;;10.70;65.80;;;;;;5031306;28;20504;-83
2021/03/20 04:34:51;;;;;;;20.08;16.27;;;10.70;65.80;;;;;;5032652;28;20026;-82
2021/03/20 04:37:21;;;;;;;21.25;18.90;;;10.70;65.80;;;;;;5032686;28;20025;-82
2021/03/20 04:39:51;;;;;;;22.55;18.52;;;10.70;65.80;;;;;;5014522;28;20029;-81
2021/03/20 04:42:32;;;;;;;23.58;17.52;;;10.70;65.80;;;;;;5031466;28;20029;-80
2021/03/20 04:45:24;;;;;;;19.95;17.88;;;10.70;65.90;;;;;;5032257;28;20025;-80
2021/03/20 04:47:53;;;;;;;19.95;17.38;;;10.70;65.90;;;;;;5032743;28;20032;-81
2021/03/20 04:50:24;;;;;;;20.40;17.63;;;10.70;65.90;;;;;;5030891;28;20061;-79
2021/03/20 04:52:53;;;;;;;21.45;18.95;;;10.70;65.90;;;;;;5030776;28;20469;-79
2021/03/20 04:55:19;;;;;;;21.75;19.08;;;10.70;65.90;;;;;;5032044;28;20029;-79
2021/03/20 04:58:05;;;;;;;19.42;16.95;;;10.70;66.00;;;;;;5030988;28;20507;-79
2021/03/20 05:00:37;;;;;;;21.60;18.20;;;10.70;66.60;;;;;;5030607;28;20033;-79
2021/03/20 05:03:09;;;;;;;20.17;18.15;;;10.70;66.00;;;;;;5030979;28;20059;-80
2021/03/20 05:05:48;;;;;;;21.17;18.98;;;10.70;66.00;;;;;;5032174;28;20204;-79
2021/03/20 05:08:42;;;;;;;22.30;19.33;;;10.70;66.00;;;;;;5031895;28;20108;-80
2021/03/20 05:11:20;;;;;;;20.25;18.00;;;10.70;66.00;;;;;;5025768;28;20076;-79
2021/03/20 05:14:09;;;;;;;20.58;18.25;;;10.70;66.00;;;;;;5030644;28;20030;-80
2021/03/20 05:17:00;;;;;;;23.25;19.88;;;10.70;66.10;;;;;;5032323;28;20118;-78
2021/03/20 05:19:28;;;;;;;20.17;17.98;;;10.70;66.10;;;;;;5031809;28;20063;-79
2021/03/20 05:21:55;;;;;;;21.30;19.10;;;10.70;66.00;;;;;;5030433;28;20032;-78
2021/03/20 05:24:28;;;;;;;21.00;18.52;;;10.70;66.10;;;;;;5030332;28;20481;-78
2021/03/20 05:26:55;;;;;;;20.83;18.60;;;10.70;66.10;;;;;;5030388;28;20041;-80
2021/03/20 05:29:22;;;;;;;21.13;18.58;;;10.70;66.10;;;;;;5030281;28;20274;-80
2021/03/20 05:31:48;;;;;;;23.40;19.25;;;10.70;66.20;;;;;;5031654;28;20025;-78
2021/03/20 05:34:34;;;;;;;21.88;19.55;;;10.60;66.00;;;;;;5030240;28;20116;-80
2021/03/20 05:37:00;;;;;;;20.42;18.23;;;10.60;66.00;;;;;;5030315;28;20076;-79
2021/03/20 05:39:27;;;;;;;21.23;18.95;;;10.60;66.00;;;;;;5031132;28;20026;-78
2021/03/20 05:41:58;;;;;;;23.55;19.90;;;10.70;66.20;;;;;;5030414;28;20033;-80
2021/03/20 05:44:53;;;;;;;21.80;19.52;;;10.60;66.10;;;;;;5031461;28;20045;-79
2021/03/20 05:47:22;;;;;;;22.50;20.02;;;10.60;66.20;;;;;;5029252;28;20084;-80
2021/03/20 05:50:13;;;;;;;22.80;19.48;;;10.60;66.10;;;;;;5025973;28;20044;-79
2021/03/20 05:52:42;;;;;;;21.05;18.75;;;10.60;66.20;;;;;;5027724;28;20095;-83
2021/03/20 05:55:17;;;;;;;22.10;18.13;;;10.60;66.20;;;;;;5027058;28;20072;-82
2021/03/20 05:57:55;;;;;;;21.38;19.05;;;10.60;66.20;;;;;;5026642;28;20064;-79
2021/03/20 06:00:36;;;;;;;23.17;19.67;;;10.60;66.20;;;;;;5027012;28;20026;-79
2021/03/20 06:03:32;;;;;;;23.40;19.27;;;10.60;66.30;;;;;;5019457;28;20045;-84
2021/03/20 06:06:25;;;;;;;25.38;19.50;;;10.60;66.30;;;;;;5006329;28;20061;-83
2021/03/20 06:09:08;;;;;;;21.88;19.67;;;10.60;66.30;;;;;;4968847;28;20404;-81
2021/03/20 06:11:40;;;;;;;22.85;19.90;;;10.60;66.30;;;;;;5005041;28;20404;-84
2021/03/20 06:14:14;;;;;;;20.60;18.40;;;10.60;66.20;;;;;;5023095;28;20088;-84
2021/03/20 06:17:10;;;;;;;24.13;19.33;;;10.50;66.10;;;;;;5025379;28;20030;-81
2021/03/20 06:20:08;;;;;;;21.45;19.15;;;10.60;66.30;;;;;;5025050;28;20500;-80
2021/03/20 06:22:34;;;;;;;22.50;19.25;;;10.50;66.10;;;;;;5029520;28;20037;-83
2021/03/20 06:25:03;;;;;;;22.25;19.25;;;10.60;66.30;;;;;;5026462;28;20041;-81
2021/03/20 06:27:40;;;;;;;21.67;19.10;;;10.50;66.10;;;;;;5030963;28;20053;-82
2021/03/20 06:30:31;;;;;;;21.02;18.90;;;10.50;66.20;;;;;;5030639;28;20033;-82
2021/03/20 06:33:12;;;;;;;20.75;18.27;;;10.50;66.20;;;;;;5029708;28;20048;-82
2021/03/20 06:35:44;;;;;;;23.02;20.55;;;10.50;66.20;;;;;;5012501;28;20030;-81
2021/03/20 06:38:31;;;;;;;23.58;20.80;;;10.50;66.20;;;;;;5023244;28;20030;-84
2021/03/20 06:41:13;;;;;;;21.35;19.05;;;10.50;66.20;;;;;;5010252;28;20393;-80
2021/03/20 06:43:46;;;;;;;21.55;19.15;;;10.50;66.20;;;;;;5022645;28;20060;-84
2021/03/20 06:46:16;;;;;;;26.25;20.85;;;10.50;66.20;;;;;;5030053;28;20120;-83
2021/03/20 06:48:44;;;;;;;26.17;20.75;;;10.50;66.20;;;;;;5030118;28;20440;-80
2021/03/20 06:51:10;;;;;;;23.17;20.15;;;10.50;66.30;;;;;;5029237;28;20075;-82
2021/03/20 06:53:45;;;;;;;22.85;20.38;;;10.50;66.30;;;;;;5030118;28;20435;-84
2021/03/20 06:56:13;;;;;;;22.38;19.92;;;10.50;66.30;;;;;;5030090;28;20540;-82
2021/03/20 06:58:41;;;;;;;22.77;20.35;;;10.50;66.30;;;;;;5029823;28;20041;-82
2021/03/20 07:01:13;;;;;;;21.65;19.33;;;10.50;66.80;;;;;;5030843;28;20025;-82
2021/03/20 07:04:02;;;;;;;22.25;19.90;;;10.50;66.30;;;;;;5017708;28;20602;-80
2021/03/20 07:06:47;;;;;;;23.45;20.00;;;10.50;66.40;;;;;;5015844;28;20160;-80
2021/03/20 07:09:13;;;;;;;22.02;18.60;;;10.50;66.30;;;;;;5010717;28;20564;-77
2021/03/20 07:12:13;;;;;;;24.08;19.70;;;10.50;66.30;;;;;;5009390;28;20046;-79
2021/03/20 07:14:49;;;;;;;25.75;20.58;;;10.60;66.90;;;;;;5008545;28;20068;-80
2021/03/20 07:17:18;;;;;;;25.48;19.13;;;10.60;66.80;;;;;;5027343;28;20097;-80
2021/03/20 07:19:58;;;;;;;22.50;19.25;;;10.60;66.90;;;;;;5011558;28;20034;-80
2021/03/20 07:22:49;;;;;;;25.35;20.67;;;10.70;67.30;;;;;;5029222;28;20026;-80
2021/03/20 07:25:36;;;;;;;22.88;20.45;;;10.70;67.30;;;;;;5018337;28;20047;-83
2021/03/20 07:28:12;;;;;;;27.85;22.17;;;10.80;67.50;;;;;;5028396;28;20025;-87
2021/03/20 07:30:59;;;;;;;23.80;20.92;;;10.80;67.70;;;;;;5012647;28;20041;-86
2021/03/20 07:33:36;;;;;;;24.83;21.35;;;10.80;68.00;;;;;;5011291;28;20026;-85
2021/03/20 07:36:35;;;;;;;28.60;23.98;;;10.90;68.30;;;;;;5028783;28;20045;-85
2021/03/20 07:39:10;;;;;;;24.83;22.15;;;11.00;68.40;;;;;;5002977;28;20079;-85
2021/03/20 07:41:55;;;;;;;24.63;21.92;;;11.00;68.30;;;;;;4991612;28;20038;-83
2021/03/20 07:44:23;;;;;;;26.40;22.77;;;11.10;68.50;;;;;;5027585;28;20460;-83
2021/03/20 07:46:50;;;;;;;29.90;23.30;;;11.20;68.60;;;;;;5026634;28;20111;-83
2021/03/20 07:49:31;;;;;;;25.90;23.00;;;11.20;68.50;;;;;;5027617;28;20037;-83
2021/03/20 07:52:01;;;;;;;26.05;21.75;;;11.20;68.60;;;;;;5031446;28;20052;-85
2021/03/20 07:54:34;;;;;;;25.45;22.65;;;11.30;68.60;;;;;;5012724;28;20037;-84
2021/03/20 07:57:15;;;;;;;29.88;23.15;;;11.30;68.60;;;;;;5007856;28;20034;-82
2021/03/20 07:59:50;;;;;;;28.00;23.77;;;11.40;68.70;;;;;;5025650;28;20090;-83
2021/03/20 08:02:37;;;;;;;27.70;22.13;;;11.40;68.60;;;;;;5013445;28;20033;-83
2021/03/20 08:05:18;;;;;;;27.67;23.35;;;11.40;68.60;;;;;;5013877;28;20466;-84
2021/03/20 08:07:47;;;;;;;31.55;25.17;;;11.40;68.50;;;;;;5013369;28;20042;-81
2021/03/20 08:10:19;;;;;;;27.08;24.00;;;11.50;68.60;;;;;;5013929;28;20117;-85
2021/03/20 08:13:04;;;;;;;35.30;26.30;;;11.50;68.60;;;;;;5009296;28;20054;-84
2021/03/20 08:15:59;;;;;;;32.63;24.10;;;11.50;68.60;;;;;;5026648;28;20048;-82
2021/03/20 08:18:41;;;;;;;29.00;24.65;;;11.60;68.60;;;;;;5004211;28;20091;-84
2021/03/20 08:21:13;;;;;;;31.13;24.73;;;11.70;68.80;;;;;;5027249;28;20067;-84
2021/03/20 08:23:57;;;;;;;27.60;23.55;;;11.70;68.70;;;;;;5026887;28;20069;-84
2021/03/20 08:26:28;;;;;;;26.17;23.35;;;11.70;68.70;;;;;;5028726;28;20040;-83
2021/03/20 08:28:59;;;;;;;28.27;25.20;;;11.80;68.80;;;;;;5027153;28;20091;-84
2021/03/20 08:31:36;;;;;;;31.30;26.25;;;11.90;68.90;;;;;;5029036;28;20029;-84
2021/03/20 08:34:23;;;;;;;28.70;24.33;;;12.00;69.10;;;;;;5010686;28;20033;-83
2021/03/20 08:37:27;;;;;;;30.00;25.05;;;12.10;69.10;;;;;;5027000;28;20061;-85
2021/03/20 08:40:02;;;;;;;26.20;23.38;;;12.10;69.00;;;;;;5027927;28;20426;-85
2021/03/20 08:42:40;;;;;;;31.23;24.75;;;12.20;69.00;;;;;;5026351;28;20037;-84
2021/03/20 08:45:17;;;;;;;28.08;24.13;;;12.30;69.10;;;;;;5010857;28;20034;-87
2021/03/20 08:47:43;;;;;;;29.55;23.85;;;12.30;69.00;;;;;;5028398;28;20108;-85
2021/03/20 08:50:37;;;;;;;30.20;24.92;;;12.40;69.00;;;;;;5025069;28;20046;-86
2021/03/20 08:53:28;;;;;;;26.17;22.88;;;12.40;69.00;;;;;;5019381;28;20025;-88
2021/03/20 08:56:17;;;;;;;26.75;23.35;;;12.50;69.00;;;;;;5028348;28;20029;-88
2021/03/20 08:58:52;;;;;;;28.77;24.15;;;12.50;68.90;;;;;;4998933;28;20033;-85
2021/03/20 09:01:47;;;;;;;26.92;24.05;;;12.60;69.00;;;;;;5027430;28;20117;-84
2021/03/20 09:04:35;;;;;;;28.08;22.85;;;12.70;69.10;;;;;;5008147;28;20045;-84
2021/03/20 09:07:09;;;;;;;29.33;25.02;;;12.80;69.10;;;;;;5026785;28;20037;-85
2021/03/20 09:09:50;;;;;;;28.77;25.70;;;12.80;69.00;;;;;;5025558;28;20251;-84
2021/03/20 09:12:36;;;;;;;27.58;23.88;;;12.90;69.20;;;;;;5008241;28;20417;-86
2021/03/20 09:15:09;;;;;;;27.70;23.80;;;12.90;69.10;;;;;;5026149;28;20121;-85
2021/03/20 09:17:44;;;;;;;30.00;25.70;;;13.00;69.10;;;;;;5025679;28;20026;-85
2021/03/20 09:20:14;;;;;;;28.48;23.88;;;13.00;69.00;;;;;;5026483;28;20033;-84
2021/03/20 09:22:46;;;;;;;28.58;25.17;;;13.20;69.30;;;;;;5026728;28;20049;-84
2021/03/20 09:25:36;;;;;;;27.25;24.35;;;13.30;69.40;;;;;;5026236;28;20033;-85
2021/03/20 09:28:27;;;;;;;27.15;24.30;;;13.30;69.20;;;;;;5026080;28;20030;-84
2021/03/20 09:31:00;;;;;;;26.27;23.02;;;13.50;69.30;;;;;;5026688;28;20041;-82
2021/03/20 09:33:26;;;;;;;29.13;25.17;;;13.60;69.30;;;;;;5025800;28;20038;-78
2021/03/20 09:36:21;;;;;;;23.05;20.55;;;13.70;69.30;;;;;;5025962;28;20463;-80
2021/03/20 09:38:51;;;;;;;23.30;20.65;;;13.80;69.80;;;;;;5016553;28;20040;-79
2021/03/20 09:41:19;;;;;;;26.58;22.45;;;13.90;69.80;;;;;;5027333;28;20029;-81
2021/03/20 09:43:55;;;;;;;25.45;21.10;;;14.10;70.00;;;;;;5025235;28;20068;-82
2021/03/20 09:46:49;;;;;;;25.65;22.02;;;14.20;70.00;;;;;;5009542;28;20029;-83
2021/03/20 09:49:21;;;;;;;25.80;21.92;;;14.30;69.90;;;;;;5009000;28;20366;-85
2021/03/20 09:51:57;;;;;;;22.52;20.08;;;14.40;69.90;;;;;;5027063;28;20389;-83
2021/03/20 09:57:12;;;;;;;28.15;20.67;;;14.60;69.80;;;;;;5026762;28;20552;-84
2021/03/20 09:59:38;;;;;;;25.88;21.98;;;14.70;69.70;;;;;;5025033;28;20037;-84
2021/03/20 10:02:09;;;;;;;26.58;21.05;;;14.80;69.60;;;;;;5024395;28;20026;-81
2021/03/20 10:04:37;;;;;;;23.13;20.30;;;14.90;69.60;;;;;;5006538;28;20045;-84
2021/03/20 10:07:22;;;;;;;25.25;22.42;;;15.10;69.80;;;;;;5006308;28;20057;-83
2021/03/20 10:10:15;;;;;;;24.45;20.75;;;15.10;69.50;;;;;;5023233;28;20459;-79
2021/03/20 10:12:44;;;;;;;23.83;20.77;;;15.30;69.50;;;;;;5020343;28;20046;-82
2021/03/20 10:15:14;;;;;;;22.35;19.52;;;15.40;69.40;;;;;;5006380;28;20104;-81
2021/03/20 10:17:59;;;;;;;24.15;21.63;;;15.40;69.20;;;;;;4989479;28;20045;-80
2021/03/20 10:20:41;;;;;;;22.95;20.55;;;15.50;69.10;;;;;;5005353;28;20046;-79
2021/03/20 10:23:19;;;;;;;22.30;19.92;;;15.50;68.90;;;;;;5014863;28;20073;-80
2021/03/20 10:25:51;;;;;;;22.13;19.77;;;15.60;68.80;;;;;;5025381;28;20126;-81
2021/03/20 10:28:18;;;;;;;22.50;20.13;;;15.60;68.60;;;;;;5026319;28;20029;-79
2021/03/20 10:30:59;;;;;;;24.35;19.70;;;15.70;68.60;;;;;;5024846;28;20473;-79
2021/03/20 10:33:30;;;;;;;25.45;19.77;;;15.80;68.50;;;;;;5008399;28;20045;-79
2021/03/20 10:36:26;;;;;;;21.75;19.55;;;15.90;69.10;;;;;;5026867;28;20041;-80
2021/03/20 10:38:52;;;;;;;20.05;18.05;;;16.00;68.40;;;;;;5024459;28;20037;-80
2021/03/20 10:41:36;;;;;;;20.85;16.88;;;16.00;68.20;;;;;;5025155;28;20115;-83
2021/03/20 10:44:19;;;;;;;18.77;16.88;;;16.00;67.90;;;;;;5025703;28;20125;-79
2021/03/20 10:46:45;;;;;;;17.20;15.40;;;16.00;67.60;;;;;;5026021;28;20022;-79
2021/03/20 10:49:21;;;;;;;18.83;16.92;;;16.10;67.80;;;;;;5025815;28;20033;-80
2021/03/20 10:51:51;;;;;;;17.67;15.90;;;16.00;67.40;;;;;;5026551;28;20037;-79
2021/03/20 10:54:27;;;;;;;18.25;16.25;;;16.10;67.50;;;;;;5026033;28;20030;-79
2021/03/20 10:56:55;;;;;;;19.15;17.02;;;16.10;67.40;;;;;;5025960;28;20095;-78
2021/03/20 10:59:27;;;;;;;16.67;14.98;;;16.10;67.30;;;;;;5010109;28;20492;-80
2021/03/20 11:01:53;;;;;;;16.23;14.60;;;16.10;66.60;;;;;;5005223;28;20125;-81
2021/03/20 11:04:32;;;;;;;19.50;14.13;;;16.00;66.00;;;;;;5022864;28;20034;-81
2021/03/20 11:07:00;;;;;;;17.85;14.93;;;15.90;65.20;;;;;;5025810;28;20029;-80
2021/03/20 11:09:35;;;;;;;16.23;14.65;;;15.70;65.10;;;;;;5027804;28;20033;-81
2021/03/20 11:12:10;;;;;;;15.07;13.60;;;15.60;64.60;;;;;;5029489;28;20068;-81
2021/03/20 11:14:52;;;;;;;17.10;14.27;;;15.40;64.50;;;;;;5011970;28;20017;-81
2021/03/20 11:17:26;;;;;;;17.38;14.07;;;15.30;64.20;;;;;;5029708;28;20037;-83
2021/03/20 11:19:59;;;;;;;;;;;15.30;64.50;;;;;;5012160;28;20033;-82
2021/03/20 11:22:26;;;;;;;15.80;14.00;;;15.30;64.80;;;;;;5027120;28;19913;-83
2021/03/20 11:24:55;;;;;;;16.27;14.63;;;15.40;64.80;;;;;;4991973;28;20488;-82
2021/03/20 11:27:23;;;;;;;22.45;14.48;;;15.50;64.80;;;;;;4991593;28;20118;-81
2021/03/20 11:29:53;;;;;;;16.15;14.15;;;15.60;64.80;;;;;;4991934;28;20112;-82
2021/03/20 11:32:35;;;;;;;15.23;13.70;;;15.60;64.60;;;;;;5009432;28;20465;-83
2021/03/20 11:35:08;;;;;;;15.82;14.05;;;15.60;64.40;;;;;;5028215;28;20033;-81
2021/03/20 11:37:35;;;;;;;14.18;12.77;;;15.70;64.50;;;;;;5029408;28;20034;-83
2021/03/20 11:40:05;;;;;;;14.60;13.05;;;15.80;64.60;;;;;;5028308;28;20033;-82
2021/03/20 11:42:39;;;;;;;14.55;13.10;;;15.80;64.40;;;;;;5029179;28;20040;-82
2021/03/20 11:45:22;;;;;;;17.02;13.65;;;15.80;64.20;;;;;;5011696;28;20091;-80
2021/03/20 11:47:50;;;;;;;14.35;12.32;;;15.90;64.30;;;;;;5027525;28;20049;-82
2021/03/20 11:50:28;;;;;;;13.70;12.30;;;15.90;64.20;;;;;;5029253;28;20112;-80
2021/03/20 11:53:23;;;;;;;14.85;13.35;;;15.90;64.00;;;;;;5028980;28;20473;-81
2021/03/20 11:55:51;;;;;;;14.15;12.77;;;15.90;63.90;;;;;;5029350;28;20052;-82
2021/03/20 11:58:37;;;;;;;14.45;12.95;;;16.00;64.20;;;;;;5028457;28;20511;-82
2021/03/20 12:01:25;;;;;;;15.38;13.73;;;16.00;64.00;;;;;;5029366;28;20061;-82
2021/03/20 12:03:52;;;;;;;18.58;13.30;;;16.00;64.10;;;;;;5013424;28;20521;-82
2021/03/20 12:06:20;;;;;;;15.07;13.57;;;16.00;64.10;;;;;;4991447;28;20038;-79
2021/03/20 12:08:51;;;;;;;17.13;13.50;;;16.10;64.20;;;;;;5018321;28;20184;-81
2021/03/20 12:11:40;;;;;;;15.13;12.80;;;16.20;64.40;;;;;;5010066;28;20044;-81
2021/03/20 12:14:35;;;;;;;15.60;12.68;;;16.20;64.30;;;;;;5027156;28;20042;-83
2021/03/20 12:17:10;;;;;;;13.07;11.77;;;16.30;64.40;;;;;;5010816;28;20389;-83
2021/03/20 12:19:57;;;;;;;14.15;12.68;;;16.30;64.30;;;;;;5026884;28;20033;-82
2021/03/20 12:22:56;;;;;;;12.65;11.35;;;16.30;64.20;;;;;;5027060;28;20085;-83
2021/03/20 12:25:45;;;;;;;14.02;12.60;;;16.40;64.30;;;;;;4994723;28;20067;-81
2021/03/20 12:28:33;;;;;;;15.00;12.20;;;16.50;64.30;;;;;;5028165;28;20034;-81
2021/03/20 12:31:22;;;;;;;13.15;11.68;;;16.50;64.20;;;;;;5029062;28;20052;-82
2021/03/20 12:34:21;;;;;;;14.15;12.70;;;16.50;64.10;;;;;;5018729;28;20034;-82
2021/03/20 12:36:51;;;;;;;13.98;12.60;;;16.60;64.20;;;;;;5027915;28;20523;-83
2021/03/20 12:39:23;;;;;;;13.10;11.80;;;16.60;64.10;;;;;;5026868;28;20041;-84
2021/03/20 12:41:55;;;;;;;13.50;12.13;;;16.60;64.00;;;;;;5026646;28;20400;-82
2021/03/20 12:44:23;;;;;;;13.80;11.70;;;16.70;64.10;;;;;;5027936;28;20046;-84
2021/03/20 12:47:00;;;;;;;14.43;12.60;;;16.70;64.20;;;;;;5028470;28;20040;-84
2021/03/20 12:49:29;;;;;;;12.40;11.20;;;16.70;64.00;;;;;;5028273;28;20112;-84
2021/03/20 12:52:01;;;;;;;14.25;12.63;;;16.80;64.20;;;;;;5026937;28;20366;-84
2021/03/20 12:54:32;;;;;;;14.07;11.82;;;16.80;64.10;;;;;;5026706;28;20052;-84
2021/03/20 12:57:04;;;;;;;13.95;12.13;;;16.80;64.10;;;;;;5026290;28;20025;-87
2021/03/20 12:59:30;;;;;;;12.52;11.23;;;16.80;64.10;;;;;;5026316;28;20112;-84
2021/03/20 13:01:56;;;;;;;13.07;11.85;;;16.80;64.00;;;;;;5027985;28;20543;-87
2021/03/20 13:04:24;;;;;;;13.40;12.00;;;16.90;64.20;;;;;;5016305;28;20091;-86
2021/03/20 13:06:50;;;;;;;13.05;11.75;;;16.90;64.10;;;;;;5008103;28;20030;-86
2021/03/20 13:09:19;;;;;;;12.10;10.93;;;17.00;64.20;;;;;;5019938;28;20187;-84
2021/03/20 13:11:46;;;;;;;13.27;11.60;;;17.00;64.10;;;;;;5010265;28;20052;-83
2021/03/20 13:14:12;;;;;;;11.63;10.52;;;17.00;64.10;;;;;;5026748;28;20471;-83